createdAt,value
2018-04-01T00:01:15.247Z,1.80
2018-04-01T00:03:42.248Z,1.70
2018-04-01T00:06:10.006Z,1.80
2018-04-01T00:08:36.983Z,1.80
2018-04-01T00:11:03.983Z,1.80
2018-04-01T00:13:31.815Z,1.80
2018-04-01T00:15:58.803Z,1.70
2018-04-01T00:18:25.846Z,1.80
2018-04-01T00:20:52.835Z,1.90
2018-04-01T00:23:19.865Z,1.80
2018-04-01T00:25:47.671Z,1.90
2018-04-01T00:28:14.662Z,1.90
2018-04-01T00:30:42.404Z,1.90
2018-04-01T00:33:09.381Z,1.90
2018-04-01T00:35:37.155Z,1.80
2018-04-01T00:38:04.186Z,1.80
2018-04-01T00:40:31.194Z,1.80
2018-04-01T00:42:58.186Z,1.80
2018-04-01T00:45:25.216Z,1.80
2018-04-01T00:47:52.200Z,1.90
2018-04-01T00:50:19.204Z,1.90
2018-04-01T00:52:46.220Z,1.80
2018-04-01T00:55:13.293Z,1.80
2018-04-01T00:57:40.299Z,1.80
2018-04-01T01:00:07.294Z,1.80
2018-04-01T01:02:34.288Z,1.80
2018-04-01T01:05:01.308Z,1.70
2018-04-01T01:07:28.317Z,1.80
2018-04-01T01:09:55.307Z,1.70
2018-04-01T01:12:22.332Z,1.70
2018-04-01T01:14:50.093Z,1.80
2018-04-01T01:17:17.110Z,1.70
2018-04-01T01:19:44.085Z,1.80
2018-04-01T01:22:11.133Z,1.80
2018-04-01T01:24:38.143Z,1.80
2018-04-01T01:27:05.142Z,1.80
2018-04-01T01:29:32.240Z,1.70
2018-04-01T01:31:59.256Z,1.80
2018-04-01T01:34:26.273Z,1.70
2018-04-01T01:36:53.319Z,1.70
2018-04-01T01:39:21.102Z,1.80
2018-04-01T01:41:48.127Z,1.70
2018-04-01T01:44:15.955Z,1.70
2018-04-01T01:46:43.017Z,1.80
2018-04-01T01:49:10.050Z,1.80
2018-04-01T01:51:37.038Z,1.80
2018-04-01T01:54:04.825Z,1.70
2018-04-01T01:56:31.835Z,1.60
2018-04-01T01:58:58.855Z,1.70
2018-04-01T02:01:25.853Z,1.70
2018-04-01T02:03:52.861Z,1.70
2018-04-01T02:06:19.898Z,1.80
2018-04-01T02:08:46.894Z,1.80
2018-04-01T02:11:13.910Z,1.90
2018-04-01T02:13:40.962Z,1.80
2018-04-01T02:16:08.010Z,1.80
2018-04-01T02:18:35.000Z,1.80
2018-04-01T02:21:02.000Z,1.90
2018-04-01T02:23:29.035Z,1.90
2018-04-01T02:25:56.068Z,1.90
2018-04-01T02:28:23.069Z,1.90
2018-04-01T02:30:50.091Z,1.90
2018-04-01T02:33:17.087Z,1.90
2018-04-01T02:35:44.096Z,1.80
2018-04-01T02:38:11.173Z,1.90
2018-04-01T02:40:38.180Z,1.90
2018-04-01T02:43:05.179Z,1.80
2018-04-01T02:45:32.174Z,1.80
2018-04-01T02:47:59.948Z,1.80
2018-04-01T02:50:27.717Z,1.80
2018-04-01T02:52:54.841Z,1.80
2018-04-01T02:55:21.847Z,1.90
2018-04-01T02:57:48.911Z,1.80
2018-04-01T03:00:15.940Z,1.80
2018-04-01T03:02:42.950Z,1.90
2018-04-01T03:05:10.006Z,1.80
2018-04-01T03:07:37.032Z,1.90
2018-04-01T03:10:04.856Z,1.80
2018-04-01T03:12:31.850Z,1.80
2018-04-01T03:14:59.628Z,1.80
2018-04-01T03:17:26.695Z,1.80
2018-04-01T03:19:53.713Z,1.80
2018-04-01T03:22:21.487Z,1.90
2018-04-01T03:24:48.527Z,1.90
2018-04-01T03:27:16.311Z,1.80
2018-04-01T03:29:43.314Z,1.80
2018-04-01T03:32:10.292Z,1.70
2018-04-01T03:34:37.318Z,1.70
2018-04-01T03:37:05.079Z,1.70
2018-04-01T03:39:32.843Z,1.70
2018-04-01T03:42:00.618Z,1.60
2018-04-01T03:44:28.370Z,1.60
2018-04-01T03:46:55.365Z,1.60
2018-04-01T03:49:22.392Z,1.60
2018-04-01T03:51:49.486Z,1.60
2018-04-01T03:54:16.523Z,1.60
2018-04-01T03:56:43.544Z,1.60
2018-04-01T03:59:10.586Z,1.70
2018-04-01T04:01:37.597Z,1.70
2018-04-01T04:04:05.364Z,1.80
2018-04-01T04:06:32.367Z,1.80
2018-04-01T04:08:59.338Z,1.80
2018-04-01T04:11:26.354Z,1.80
2018-04-01T04:13:53.356Z,1.80
2018-04-01T04:16:21.111Z,1.80
2018-04-01T04:18:48.846Z,1.80
2018-04-01T04:21:15.844Z,1.80
2018-04-01T04:23:42.845Z,1.80
2018-04-01T04:26:09.854Z,1.80
2018-04-01T04:28:36.873Z,1.80
2018-04-01T04:31:04.642Z,1.90
2018-04-01T04:33:31.663Z,1.90
2018-04-01T04:35:59.434Z,1.80
2018-04-01T04:38:27.227Z,1.90
2018-04-01T04:40:54.266Z,1.80
2018-04-01T04:43:21.282Z,1.90
2018-04-01T04:45:48.331Z,1.90
2018-04-01T04:48:16.098Z,1.80
2018-04-01T04:50:43.158Z,1.80
2018-04-01T04:53:10.166Z,1.90
2018-04-01T04:55:37.187Z,1.80
2018-04-01T04:58:04.191Z,1.80
2018-04-01T05:00:31.206Z,1.80
2018-04-01T05:02:58.170Z,1.80
2018-04-01T05:05:25.194Z,1.70
2018-04-01T05:07:52.183Z,1.80
2018-04-01T05:10:19.194Z,1.80
2018-04-01T05:12:46.182Z,1.80
2018-04-01T05:15:13.209Z,1.80
2018-04-01T05:17:40.251Z,1.90
2018-04-01T05:20:07.227Z,1.90
2018-04-01T05:22:34.433Z,1.90
2018-04-01T05:25:01.489Z,1.90
2018-04-01T05:27:28.521Z,1.90
2018-04-01T05:29:55.614Z,1.90
2018-04-01T05:32:22.609Z,1.90
2018-04-01T05:34:49.607Z,2.00
2018-04-01T05:37:16.649Z,2.00
2018-04-01T05:39:43.653Z,1.90
2018-04-01T05:42:10.727Z,1.90
2018-04-01T05:44:37.763Z,2.00
2018-04-01T05:47:04.768Z,1.90
2018-04-01T05:49:31.790Z,1.90
2018-04-01T05:51:58.809Z,2.00
2018-04-01T05:54:26.600Z,2.00
2018-04-01T05:56:54.643Z,2.00
2018-04-01T05:59:21.740Z,2.00
2018-04-01T06:01:48.734Z,1.90
2018-04-01T06:04:15.798Z,1.90
2018-04-01T06:06:42.862Z,1.90
2018-04-01T06:09:09.954Z,1.90
2018-04-01T06:11:37.398Z,1.90
2018-04-01T06:14:05.361Z,2.00
2018-04-01T06:16:35.063Z,2.10
2018-04-01T06:19:02.099Z,2.10
2018-04-01T06:21:29.174Z,2.10
2018-04-01T06:23:56.211Z,2.10
2018-04-01T06:26:23.489Z,2.20
2018-04-01T06:28:50.504Z,2.10
2018-04-01T06:31:17.532Z,2.20
2018-04-01T06:33:45.382Z,2.20
2018-04-01T06:36:13.302Z,2.20
2018-04-01T06:38:40.299Z,2.20
2018-04-01T06:41:08.534Z,2.10
2018-04-01T06:43:38.435Z,2.10
2018-04-01T06:46:09.375Z,2.30
2018-04-01T06:48:36.420Z,2.30
2018-04-01T06:51:03.694Z,2.40
2018-04-01T06:53:38.529Z,2.50
2018-04-01T06:56:06.929Z,2.70
2018-04-01T06:58:37.723Z,2.60
2018-04-01T07:01:07.240Z,2.70
2018-04-01T07:03:37.295Z,2.60
2018-04-01T07:06:04.452Z,2.70
2018-04-01T07:08:33.000Z,2.80
2018-04-01T07:11:00.278Z,2.90
2018-04-01T07:13:27.386Z,2.90
2018-04-01T07:15:54.523Z,2.80
2018-04-01T07:18:21.679Z,2.80
2018-04-01T07:20:48.745Z,2.80
2018-04-01T07:23:16.446Z,2.80
2018-04-01T07:25:43.485Z,2.80
2018-04-01T07:28:10.479Z,2.80
2018-04-01T07:30:37.644Z,2.70
2018-04-01T07:33:04.694Z,2.80
2018-04-01T07:35:31.764Z,2.80
2018-04-01T07:37:58.898Z,2.80
2018-04-01T07:40:26.248Z,2.70
2018-04-01T07:42:53.314Z,2.80
2018-04-01T07:45:20.314Z,3.00
2018-04-01T07:47:47.345Z,3.10
2018-04-01T07:50:14.358Z,3.10
2018-04-01T07:52:42.269Z,3.00
2018-04-01T07:55:09.335Z,3.10
2018-04-01T07:57:36.434Z,3.10
2018-04-01T08:00:03.478Z,3.10
2018-04-01T08:02:31.683Z,3.30
2018-04-01T08:04:58.788Z,3.40
2018-04-01T08:07:25.871Z,3.40
2018-04-01T08:09:52.882Z,3.40
2018-04-01T08:12:20.650Z,3.50
2018-04-01T08:14:47.824Z,3.50
2018-04-01T08:17:14.842Z,3.50
2018-04-01T08:19:42.600Z,3.50
2018-04-01T08:22:09.632Z,3.50
2018-04-01T08:24:36.798Z,3.40
2018-04-01T08:27:03.982Z,3.40
2018-04-01T08:29:31.108Z,3.40
2018-04-01T08:31:58.151Z,3.40
2018-04-01T08:34:25.165Z,3.50
2018-04-01T08:36:52.219Z,3.50
2018-04-01T08:39:19.867Z,3.60
2018-04-01T08:41:46.882Z,3.70
2018-04-01T08:44:13.888Z,3.60
2018-04-01T08:46:41.627Z,3.40
2018-04-01T08:49:08.614Z,3.30
2018-04-01T08:51:35.634Z,3.30
2018-04-01T08:54:02.640Z,3.20
2018-04-01T08:56:29.673Z,3.30
2018-04-01T08:58:56.699Z,3.30
2018-04-01T09:01:24.497Z,3.60
2018-04-01T09:03:51.542Z,3.60
2018-04-01T09:06:18.540Z,3.50
2018-04-01T09:08:45.528Z,3.50
2018-04-01T09:11:12.511Z,3.70
2018-04-01T09:13:39.523Z,3.80
2018-04-01T09:16:06.587Z,3.80
2018-04-01T09:18:33.670Z,3.70
2018-04-01T09:21:00.664Z,3.60
2018-04-01T09:23:27.782Z,3.60
2018-04-01T09:25:59.668Z,3.60
2018-04-01T09:28:26.973Z,3.70
2018-04-01T09:30:58.390Z,3.80
2018-04-01T09:36:05.418Z,4.00
2018-04-01T09:38:32.418Z,4.00
2018-04-01T09:40:59.469Z,4.10
2018-04-01T09:43:26.609Z,4.20
2018-04-01T09:48:35.470Z,4.10
2018-04-01T09:51:02.835Z,3.90
2018-04-01T09:53:31.788Z,3.80
2018-04-01T09:55:58.856Z,3.80
2018-04-01T09:58:25.894Z,3.90
2018-04-01T10:00:59.681Z,4.00
2018-04-01T10:03:27.237Z,4.00
2018-04-01T10:05:54.816Z,4.30
2018-04-01T10:08:22.424Z,4.30
2018-04-01T10:10:51.739Z,4.30
2018-04-01T10:13:19.222Z,4.40
2018-04-01T10:15:46.806Z,4.40
2018-04-01T10:18:14.330Z,4.60
2018-04-01T10:20:41.853Z,4.50
2018-04-01T10:23:09.347Z,4.50
2018-04-01T10:25:37.778Z,4.60
2018-04-01T10:28:05.387Z,4.70
2018-04-01T10:30:32.875Z,4.80
2018-04-01T10:33:00.345Z,4.70
2018-04-01T10:35:28.006Z,4.60
2018-04-01T10:37:55.602Z,4.40
2018-04-01T10:40:23.147Z,4.30
2018-04-01T10:42:50.643Z,4.30
2018-04-01T10:45:18.136Z,4.30
2018-04-01T10:47:45.609Z,4.30
2018-04-01T10:50:13.095Z,4.30
2018-04-01T10:52:40.624Z,4.30
2018-04-01T10:55:07.648Z,4.20
2018-04-01T10:57:34.662Z,4.30
2018-04-01T11:00:01.773Z,4.20
2018-04-01T11:02:29.871Z,4.20
2018-04-01T11:04:57.170Z,4.20
2018-04-01T11:07:25.200Z,4.10
2018-04-01T11:09:52.296Z,4.10
2018-04-01T11:12:19.269Z,4.10
2018-04-01T11:14:46.231Z,4.00
2018-04-01T11:17:13.232Z,3.90
2018-04-01T11:19:40.880Z,3.90
2018-04-01T11:22:07.885Z,3.80
2018-04-01T11:24:35.689Z,3.90
2018-04-01T11:27:02.743Z,3.80
2018-04-01T11:29:30.772Z,3.90
2018-04-01T11:31:58.841Z,3.90
2018-04-01T11:34:25.846Z,3.90
2018-04-01T11:36:52.859Z,4.10
2018-04-01T11:39:19.847Z,4.10
2018-04-01T11:41:46.894Z,4.00
2018-04-01T11:44:13.889Z,4.00
2018-04-01T11:46:41.274Z,3.90
2018-04-01T11:49:08.357Z,4.10
2018-04-01T11:51:35.581Z,4.20
2018-04-01T11:54:02.591Z,4.20
2018-04-01T11:56:29.615Z,4.30
2018-04-01T11:58:56.719Z,4.30
2018-04-01T12:01:23.764Z,4.30
2018-04-01T12:03:50.810Z,4.20
2018-04-01T12:06:19.275Z,4.20
2018-04-01T12:08:46.285Z,4.30
2018-04-01T12:11:14.206Z,4.30
2018-04-01T12:13:41.210Z,4.30
2018-04-01T12:16:08.246Z,4.50
2018-04-01T12:18:36.138Z,4.80
2018-04-01T12:21:03.141Z,4.80
2018-04-01T12:23:30.150Z,4.90
2018-04-01T12:25:57.164Z,4.90
2018-04-01T12:28:24.964Z,5.00
2018-04-01T12:30:51.958Z,5.00
2018-04-01T12:33:18.923Z,4.90
2018-04-01T12:35:46.043Z,4.80
2018-04-01T12:38:13.022Z,4.70
2018-04-01T12:40:40.068Z,4.60
2018-04-01T12:43:09.011Z,4.70
2018-04-01T12:45:36.045Z,4.70
2018-04-01T12:48:03.029Z,4.70
2018-04-01T12:50:30.043Z,4.70
2018-04-01T12:52:57.043Z,4.60
2018-04-01T12:55:24.128Z,4.70
2018-04-01T12:57:51.169Z,4.80
2018-04-01T13:00:18.158Z,5.00
2018-04-01T13:02:45.135Z,5.10
2018-04-01T13:05:12.107Z,5.20
2018-04-01T13:07:39.199Z,5.20
2018-04-01T13:10:06.200Z,5.20
2018-04-01T13:12:33.177Z,5.40
2018-04-01T13:15:01.056Z,5.70
2018-04-01T13:17:28.164Z,5.70
2018-04-01T13:19:55.130Z,5.70
2018-04-01T13:22:22.200Z,5.80
2018-04-01T13:24:49.479Z,5.90
2018-04-01T13:27:16.491Z,6.20
2018-04-01T13:29:44.364Z,6.00
2018-04-01T13:32:11.483Z,6.00
2018-04-01T13:34:39.326Z,6.00
2018-04-01T13:37:06.366Z,6.00
2018-04-01T13:39:33.575Z,6.20
2018-04-01T13:42:01.512Z,6.40
2018-04-01T13:44:28.931Z,6.30
2018-04-01T13:46:56.314Z,6.50
2018-04-01T13:49:23.680Z,6.60
2018-04-01T13:51:50.941Z,6.60
2018-04-01T13:54:22.651Z,6.60
2018-04-01T13:56:49.810Z,6.80
2018-04-01T13:59:17.009Z,6.80
2018-04-01T14:01:44.760Z,6.80
2018-04-01T14:04:11.839Z,6.80
2018-04-01T14:06:39.358Z,6.70
2018-04-01T14:09:06.450Z,6.60
2018-04-01T14:11:33.476Z,6.70
2018-04-01T14:14:00.825Z,6.70
2018-04-01T14:16:29.925Z,6.80
2018-04-01T14:18:58.899Z,6.70
2018-04-01T14:21:26.195Z,6.70
2018-04-01T14:23:53.819Z,6.60
2018-04-01T14:26:21.078Z,6.70
2018-04-01T14:28:49.260Z,6.70
2018-04-01T14:31:16.581Z,6.70
2018-04-01T14:33:43.734Z,6.60
2018-04-01T14:36:11.639Z,6.70
2018-04-01T14:38:38.641Z,6.60
2018-04-01T14:41:05.693Z,6.70
2018-04-01T14:43:33.004Z,6.70
2018-04-01T14:46:00.045Z,6.70
2018-04-01T14:48:28.570Z,6.70
2018-04-01T14:50:59.647Z,6.70
2018-04-01T14:53:26.794Z,6.70
2018-04-01T14:55:53.859Z,6.70
2018-04-01T14:58:20.934Z,6.70
2018-04-01T15:00:48.153Z,6.70
2018-04-01T15:03:15.220Z,6.70
2018-04-01T15:05:42.366Z,6.80
2018-04-01T15:08:09.397Z,6.80
2018-04-01T15:10:36.466Z,6.80
2018-04-01T15:13:04.326Z,7.00
2018-04-01T15:15:31.720Z,6.90
2018-04-01T15:18:00.062Z,6.90
2018-04-01T15:20:27.178Z,6.90
2018-04-01T15:22:54.299Z,6.90
2018-04-01T15:25:21.455Z,6.90
2018-04-01T15:27:48.543Z,6.90
2018-04-01T15:30:15.647Z,6.80
2018-04-01T15:32:42.805Z,6.70
2018-04-01T15:35:10.003Z,6.60
2018-04-01T15:37:39.976Z,6.60
2018-04-01T15:40:10.580Z,6.60
2018-04-01T15:42:39.869Z,6.60
2018-04-01T15:45:06.972Z,6.60
2018-04-01T15:47:37.471Z,6.60
2018-04-01T15:50:05.360Z,6.60
2018-04-01T15:52:32.793Z,6.60
2018-04-01T15:55:00.542Z,6.50
2018-04-01T15:57:27.904Z,6.50
2018-04-01T15:59:56.437Z,6.40
2018-04-01T16:02:24.340Z,6.50
2018-04-01T16:04:51.593Z,6.50
2018-04-01T16:07:19.580Z,6.40
2018-04-01T16:09:46.591Z,6.50
2018-04-01T16:12:14.458Z,6.50
2018-04-01T16:14:42.006Z,6.40
2018-04-01T16:17:09.801Z,6.40
2018-04-01T16:19:37.577Z,6.40
2018-04-01T16:22:04.667Z,6.40
2018-04-01T16:24:31.788Z,6.40
2018-04-01T16:26:59.235Z,6.40
2018-04-01T16:29:26.479Z,6.30
2018-04-01T16:31:53.908Z,6.30
2018-04-01T16:34:21.705Z,6.30
2018-04-01T16:36:48.774Z,6.30
2018-04-01T16:39:15.765Z,6.20
2018-04-01T16:41:42.763Z,6.00
2018-04-01T16:44:09.851Z,5.90
2018-04-01T16:46:37.076Z,5.80
2018-04-01T16:49:04.419Z,5.80
2018-04-01T16:51:31.411Z,5.70
2018-04-01T16:53:58.498Z,5.60
2018-04-01T16:56:25.595Z,5.60
2018-04-01T16:58:53.363Z,5.50
2018-04-01T17:01:20.364Z,5.40
2018-04-01T17:03:47.397Z,5.50
2018-04-01T17:06:14.381Z,5.40
2018-04-01T17:08:41.377Z,5.30
2018-04-01T17:11:09.006Z,5.20
2018-04-01T17:13:36.055Z,5.30
2018-04-01T17:16:03.229Z,5.30
2018-04-01T17:18:30.327Z,5.40
2018-04-01T17:20:57.388Z,5.40
2018-04-01T17:23:24.378Z,5.30
2018-04-01T17:25:51.448Z,5.10
2018-04-01T17:28:19.936Z,5.00
2018-04-01T17:30:51.118Z,4.90
2018-04-01T17:33:19.272Z,4.80
2018-04-01T17:35:47.229Z,4.80
2018-04-01T17:38:16.682Z,4.70
2018-04-01T17:43:35.307Z,4.50
2018-04-01T17:46:02.293Z,4.50
2018-04-01T17:48:29.304Z,4.40
2018-04-01T17:50:58.109Z,4.40
2018-04-01T17:53:25.216Z,4.30
2018-04-01T17:55:52.211Z,4.30
2018-04-01T17:58:19.996Z,4.10
2018-04-01T18:00:47.041Z,4.10
2018-04-01T18:03:14.071Z,4.10
2018-04-01T18:05:41.052Z,4.00
2018-04-01T18:08:08.036Z,4.00
2018-04-01T18:10:35.035Z,4.00
2018-04-01T18:13:02.029Z,3.90
2018-04-01T18:15:29.001Z,3.90
2018-04-01T18:17:56.017Z,3.80
2018-04-01T18:20:22.987Z,3.80
2018-04-01T18:22:49.957Z,3.70
2018-04-01T18:25:16.976Z,3.80
2018-04-01T18:27:44.003Z,3.80
2018-04-01T18:30:11.001Z,3.60
2018-04-01T18:32:37.984Z,3.60
2018-04-01T18:35:05.234Z,3.60
2018-04-01T18:37:32.201Z,3.60
2018-04-01T18:39:59.959Z,3.60
2018-04-01T18:42:26.916Z,3.50
2018-04-01T18:44:54.044Z,3.50
2018-04-01T18:47:21.158Z,3.50
2018-04-01T18:49:48.151Z,3.40
2018-04-01T18:52:15.916Z,3.40
2018-04-01T18:54:42.904Z,3.40
2018-04-01T18:57:09.883Z,3.40
2018-04-01T18:59:37.047Z,3.40
2018-04-01T19:02:04.051Z,3.30
2018-04-01T19:04:31.062Z,3.30
2018-04-01T19:06:58.894Z,3.20
2018-04-01T19:09:25.942Z,3.20
2018-04-01T19:11:52.929Z,3.10
2018-04-01T19:14:19.934Z,3.10
2018-04-01T19:17:13.111Z,3.10
2018-04-01T19:19:40.583Z,3.10
2018-04-01T19:22:08.896Z,3.00
2018-04-01T19:24:36.534Z,2.90
2018-04-01T19:27:04.038Z,2.90
2018-04-01T19:29:31.506Z,3.00
2018-04-01T19:31:58.980Z,2.90
2018-04-01T19:34:26.443Z,2.90
2018-04-01T19:36:53.937Z,2.80
2018-04-01T19:39:21.471Z,2.90
2018-04-01T19:41:48.914Z,2.90
2018-04-01T19:44:16.378Z,2.90
2018-04-01T19:46:43.874Z,2.80
2018-04-01T19:49:11.338Z,2.80
2018-04-01T19:51:38.815Z,2.80
2018-04-01T19:54:06.289Z,2.70
2018-04-01T19:56:33.757Z,2.60
2018-04-01T19:59:01.227Z,2.60
2018-04-01T20:01:28.753Z,2.50
2018-04-01T20:03:56.235Z,2.50
2018-04-01T20:06:24.030Z,2.50
2018-04-01T20:08:51.565Z,2.40
2018-04-01T20:11:19.050Z,2.40
2018-04-01T20:13:46.600Z,2.40
2018-04-01T20:16:14.131Z,2.40
2018-04-01T20:18:41.630Z,2.30
2018-04-01T20:21:09.132Z,2.20
2018-04-01T20:23:36.609Z,2.20
2018-04-01T20:26:04.076Z,2.20
2018-04-01T20:28:34.573Z,2.20
2018-04-01T20:31:02.049Z,2.20
2018-04-01T20:33:30.310Z,2.20
2018-04-01T20:35:57.781Z,2.20
2018-04-01T20:38:25.315Z,2.30
2018-04-01T20:40:53.078Z,2.20
2018-04-01T20:43:20.561Z,2.20
2018-04-01T20:45:48.063Z,2.10
2018-04-01T20:48:15.554Z,2.20
2018-04-01T20:50:45.010Z,2.20
2018-04-01T20:53:12.529Z,2.10
2018-04-01T20:55:40.041Z,2.10
2018-04-01T20:58:07.639Z,2.10
2018-04-01T21:00:35.235Z,2.10
2018-04-01T21:03:02.898Z,2.10
2018-04-01T21:05:30.574Z,2.00
2018-04-01T21:07:58.224Z,2.00
2018-04-01T21:10:26.396Z,2.00
2018-04-01T21:12:54.280Z,2.00
2018-04-01T21:15:22.200Z,2.00
2018-04-01T21:17:50.033Z,2.00
2018-04-01T21:20:18.281Z,2.00
2018-04-01T21:22:46.033Z,2.00
2018-04-01T21:25:13.588Z,2.00
2018-04-01T21:27:41.090Z,2.00
2018-04-01T21:30:08.570Z,1.90
2018-04-01T21:32:36.283Z,1.80
2018-04-01T21:35:04.098Z,1.80
2018-04-01T21:37:33.153Z,1.80
2018-04-01T21:40:00.819Z,1.80
2018-04-01T21:42:28.533Z,1.80
2018-04-01T21:44:56.068Z,1.80
2018-04-01T21:47:23.762Z,1.70
2018-04-01T21:49:53.298Z,1.80
2018-04-01T21:52:25.261Z,1.80
2018-04-01T21:54:52.918Z,1.80
2018-04-01T21:57:22.987Z,1.70
2018-04-01T22:00:00.575Z,1.70
2018-04-01T22:02:29.585Z,1.60
2018-04-01T22:04:57.414Z,1.70
2018-04-01T22:07:25.892Z,1.60
2018-04-01T22:09:53.668Z,1.60
2018-04-01T22:12:24.123Z,1.50
2018-04-01T22:14:53.111Z,1.50
2018-04-01T22:17:22.937Z,1.50
2018-04-01T22:19:51.157Z,1.50
2018-04-01T22:22:18.942Z,1.50
2018-04-01T22:24:46.576Z,1.60
2018-04-01T22:27:14.899Z,1.50
2018-04-01T22:29:42.571Z,1.50
2018-04-01T22:32:10.076Z,1.50
2018-04-01T22:34:37.626Z,1.50
2018-04-01T22:37:05.154Z,1.40
2018-04-01T22:39:32.873Z,1.50
2018-04-01T22:42:01.670Z,1.50
2018-04-01T22:44:29.268Z,1.50
2018-04-01T22:46:56.891Z,1.50
2018-04-01T22:49:25.199Z,1.40
2018-04-01T22:51:52.754Z,1.40
2018-04-01T22:54:20.391Z,1.50
2018-04-01T22:56:48.088Z,1.40
2018-04-01T22:59:17.139Z,1.40
2018-04-01T23:01:44.727Z,1.40
2018-04-01T23:04:12.464Z,1.40
2018-04-01T23:06:40.141Z,1.40
2018-04-01T23:09:07.725Z,1.40
2018-04-01T23:11:35.321Z,1.30
2018-04-01T23:14:02.837Z,1.30
2018-04-01T23:16:30.391Z,1.30
2018-04-01T23:18:57.951Z,1.30
2018-04-01T23:21:26.222Z,1.30
2018-04-01T23:23:53.766Z,1.30
2018-04-01T23:26:21.240Z,1.30
2018-04-01T23:28:48.723Z,1.20
2018-04-01T23:31:16.335Z,1.20
2018-04-01T23:33:43.810Z,1.20
2018-04-01T23:36:11.427Z,1.20
2018-04-01T23:38:38.904Z,1.20
2018-04-01T23:41:06.395Z,1.20
2018-04-01T23:43:33.952Z,1.20
2018-04-01T23:46:01.641Z,1.20
2018-04-01T23:48:29.166Z,1.20
2018-04-01T23:50:57.607Z,1.20
2018-04-01T23:53:25.089Z,1.20
2018-04-01T23:55:52.620Z,1.20
2018-04-01T23:58:30.005Z,1.20
